sensor_id;sensor_type;location;lat;lon;timestamp;pressure;altitude;pressure_sealevel;temperature;humidity
23318;BME280;11831;55.918;37.746;2022-07-15T00:00:35;98303.03;;;18.11;0.00
23318;BME280;11831;55.918;37.746;2022-07-15T00:03:02;98297.16;;;18.53;0.00
23318;BME280;11831;55.918;37.746;2022-07-15T00:05:29;98299.13;;;18.39;0.00
23318;BME280;11831;55.918;37.746;2022-07-15T00:07:55;98299.91;;;18.17;0.00
23318;BME280;11831;55.918;37.746;2022-07-15T00:10:24;98299.78;;;18.22;0.00
23318;BME280;11831;55.918;37.746;2022-07-15T00:12:51;98293.50;;;18.36;0.00
23318;BME280;11831;55.918;37.746;2022-07-15T00:15:19;98280.19;;;18.39;0.00
23318;BME280;11831;55.918;37.746;2022-07-15T00:17:46;98280.97;;;18.17;0.00
23318;BME280;11831;55.918;37.746;2022-07-15T00:20:12;98277.94;;;18.19;0.00
23318;BME280;11831;55.918;37.746;2022-07-15T00:22:39;98259.94;;;18.14;0.00
23318;BME280;11831;55.918;37.746;2022-07-15T00:25:05;98290.50;;;18.01;0.00
23318;BME280;11831;55.918;37.746;2022-07-15T00:27:32;98299.16;;;18.25;0.00
23318;BME280;11831;55.918;37.746;2022-07-15T00:29:58;98292.16;;;18.24;0.00
23318;BME280;11831;55.918;37.746;2022-07-15T00:32:24;98290.19;;;18.16;0.00
23318;BME280;11831;55.918;37.746;2022-07-15T00:34:51;98297.12;;;18.09;0.00
23318;BME280;11831;55.918;37.746;2022-07-15T00:37:17;98300.19;;;18.16;0.00
23318;BME280;11831;55.918;37.746;2022-07-15T00:39:43;98305.53;;;17.93;0.00
23318;BME280;11831;55.918;37.746;2022-07-15T00:42:13;98287.00;;;18.00;0.00
23318;BME280;11831;55.918;37.746;2022-07-15T00:45:02;98284.59;;;18.35;0.00
23318;BME280;11831;55.918;37.746;2022-07-15T00:47:29;98304.13;;;17.96;0.00
23318;BME280;11831;55.918;37.746;2022-07-15T00:49:56;98293.87;;;18.20;0.00
23318;BME280;11831;55.918;37.746;2022-07-15T00:52:22;98278.50;;;18.29;0.00
23318;BME280;11831;55.918;37.746;2022-07-15T00:54:49;98299.22;;;18.12;0.00
23318;BME280;11831;55.918;37.746;2022-07-15T00:57:16;98305.84;;;17.92;0.00
23318;BME280;11831;55.918;37.746;2022-07-15T00:59:43;98295.72;;;18.11;0.00
23318;BME280;11831;55.918;37.746;2022-07-15T01:02:12;98292.56;;;18.18;0.00
23318;BME280;11831;55.918;37.746;2022-07-15T01:04:40;98287.13;;;18.68;0.00
23318;BME280;11831;55.918;37.746;2022-07-15T01:07:06;98284.41;;;18.31;0.00
23318;BME280;11831;55.918;37.746;2022-07-15T01:09:32;98287.69;;;18.42;0.00
23318;BME280;11831;55.918;37.746;2022-07-15T01:11:58;98291.94;;;18.57;0.00
23318;BME280;11831;55.918;37.746;2022-07-15T01:14:24;98300.19;;;18.16;0.00
23318;BME280;11831;55.918;37.746;2022-07-15T01:16:50;98304.44;;;17.94;0.00
23318;BME280;11831;55.918;37.746;2022-07-15T01:19:17;98307.56;;;18.38;0.00
23318;BME280;11831;55.918;37.746;2022-07-15T01:21:43;98302.75;;;18.71;0.00
23318;BME280;11831;55.918;37.746;2022-07-15T01:24:10;98315.03;;;18.77;0.00
23318;BME280;11831;55.918;37.746;2022-07-15T01:26:37;98313.25;;;18.72;0.00
23318;BME280;11831;55.918;37.746;2022-07-15T01:29:03;98307.13;;;18.44;0.00
23318;BME280;11831;55.918;37.746;2022-07-15T01:31:29;98317.97;;;18.89;0.00
23318;BME280;11831;55.918;37.746;2022-07-15T01:33:56;98309.47;;;18.59;0.00
23318;BME280;11831;55.918;37.746;2022-07-15T01:36:22;98324.91;;;18.23;0.00
23318;BME280;11831;55.918;37.746;2022-07-15T01:38:49;98330.00;;;17.88;0.00
23318;BME280;11831;55.918;37.746;2022-07-15T01:41:16;98334.69;;;18.10;0.00
23318;BME280;11831;55.918;37.746;2022-07-15T01:43:42;98328.06;;;18.03;0.00
23318;BME280;11831;55.918;37.746;2022-07-15T01:46:08;98341.50;;;17.94;0.00
23318;BME280;11831;55.918;37.746;2022-07-15T01:48:34;98346.00;;;17.98;0.00
23318;BME280;11831;55.918;37.746;2022-07-15T01:51:22;98345.00;;;18.08;0.00
23318;BME280;11831;55.918;37.746;2022-07-15T01:53:49;98343.06;;;18.22;0.00
23318;BME280;11831;55.918;37.746;2022-07-15T01:56:15;98354.91;;;17.99;0.00
23318;BME280;11831;55.918;37.746;2022-07-15T01:58:41;98350.03;;;17.87;0.00
23318;BME280;11831;55.918;37.746;2022-07-15T02:01:08;98343.91;;;18.09;0.00
23318;BME280;11831;55.918;37.746;2022-07-15T02:03:34;98339.75;;;18.25;0.00
23318;BME280;11831;55.918;37.746;2022-07-15T02:06:00;98337.38;;;18.46;0.00
23318;BME280;11831;55.918;37.746;2022-07-15T02:08:27;98327.91;;;18.57;0.00
23318;BME280;11831;55.918;37.746;2022-07-15T02:10:53;98333.25;;;18.85;0.00
23318;BME280;11831;55.918;37.746;2022-07-15T02:13:19;98331.09;;;18.73;0.00
23318;BME280;11831;55.918;37.746;2022-07-15T02:16:06;98330.47;;;18.76;0.00
23318;BME280;11831;55.918;37.746;2022-07-15T02:18:34;98347.41;;;18.46;0.00
23318;BME280;11831;55.918;37.746;2022-07-15T02:21:00;98350.53;;;18.61;0.00
23318;BME280;11831;55.918;37.746;2022-07-15T02:23:28;98348.28;;;18.19;0.00
23318;BME280;11831;55.918;37.746;2022-07-15T02:25:55;98354.59;;;18.50;0.00
23318;BME280;11831;55.918;37.746;2022-07-15T02:28:21;98359.47;;;18.40;0.00
23318;BME280;11831;55.918;37.746;2022-07-15T02:30:47;98359.81;;;18.11;0.00
23318;BME280;11831;55.918;37.746;2022-07-15T02:33:13;98362.28;;;18.21;0.00
23318;BME280;11831;55.918;37.746;2022-07-15T02:35:40;98363.28;;;18.25;0.00
23318;BME280;11831;55.918;37.746;2022-07-15T02:38:06;98362.75;;;18.37;0.00
23318;BME280;11831;55.918;37.746;2022-07-15T02:40:32;98354.59;;;18.64;0.00
23318;BME280;11831;55.918;37.746;2022-07-15T02:43:00;98348.63;;;18.76;0.00
23318;BME280;11831;55.918;37.746;2022-07-15T02:45:27;98349.00;;;18.83;0.00
23318;BME280;11831;55.918;37.746;2022-07-15T02:47:53;98350.53;;;18.75;0.00
23318;BME280;11831;55.918;37.746;2022-07-15T02:50:20;98361.00;;;18.68;0.00
23318;BME280;11831;55.918;37.746;2022-07-15T02:52:47;98365.25;;;18.47;0.00
23318;BME280;11831;55.918;37.746;2022-07-15T02:55:13;98360.81;;;18.51;0.00
23318;BME280;11831;55.918;37.746;2022-07-15T02:57:40;98367.22;;;18.69;0.00
23318;BME280;11831;55.918;37.746;2022-07-15T03:00:08;98360.09;;;18.23;0.00
23318;BME280;11831;55.918;37.746;2022-07-15T03:02:35;98354.09;;;18.84;0.00
23318;BME280;11831;55.918;37.746;2022-07-15T03:05:02;98357.38;;;18.59;0.00
23318;BME280;11831;55.918;37.746;2022-07-15T03:07:28;98346.22;;;18.97;0.00
23318;BME280;11831;55.918;37.746;2022-07-15T03:09:55;98351.12;;;19.17;0.00
23318;BME280;11831;55.918;37.746;2022-07-15T03:12:21;98342.56;;;18.70;0.00
23318;BME280;11831;55.918;37.746;2022-07-15T03:14:47;98347.00;;;18.97;0.00
23318;BME280;11831;55.918;37.746;2022-07-15T03:17:13;98356.81;;;19.07;0.00
23318;BME280;11831;55.918;37.746;2022-07-15T03:19:39;98357.84;;;18.97;0.00
23318;BME280;11831;55.918;37.746;2022-07-15T03:22:06;98358.91;;;19.10;0.00
23318;BME280;11831;55.918;37.746;2022-07-15T03:24:32;98372.53;;;19.27;0.00
23318;BME280;11831;55.918;37.746;2022-07-15T03:26:59;98366.91;;;18.92;0.00
23318;BME280;11831;55.918;37.746;2022-07-15T03:29:42;98383.03;;;19.51;0.00
23318;BME280;11831;55.918;37.746;2022-07-15T03:32:09;98377.25;;;19.75;0.00
23318;BME280;11831;55.918;37.746;2022-07-15T03:34:37;98383.13;;;19.37;0.00
23318;BME280;11831;55.918;37.746;2022-07-15T03:37:03;98389.31;;;19.29;0.00
23318;BME280;11831;55.918;37.746;2022-07-15T03:39:30;98391.22;;;19.29;0.00
23318;BME280;11831;55.918;37.746;2022-07-15T03:41:56;98386.06;;;19.80;0.00
23318;BME280;11831;55.918;37.746;2022-07-15T03:44:22;98382.63;;;20.06;0.00
23318;BME280;11831;55.918;37.746;2022-07-15T03:46:48;98375.28;;;19.98;0.00
23318;BME280;11831;55.918;37.746;2022-07-15T03:49:14;98378.69;;;19.41;0.00
23318;BME280;11831;55.918;37.746;2022-07-15T03:51:41;98392.22;;;19.64;0.00
23318;BME280;11831;55.918;37.746;2022-07-15T03:54:07;98385.28;;;19.89;0.00
23318;BME280;11831;55.918;37.746;2022-07-15T03:56:33;98376.34;;;19.88;0.00
23318;BME280;11831;55.918;37.746;2022-07-15T03:59:00;98373.09;;;20.26;0.00
23318;BME280;11831;55.918;37.746;2022-07-15T04:01:26;98375.16;;;20.20;0.00
23318;BME280;11831;55.918;37.746;2022-07-15T04:03:52;98372.63;;;20.24;0.00
23318;BME280;11831;55.918;37.746;2022-07-15T04:06:19;98388.19;;;19.92;0.00
23318;BME280;11831;55.918;37.746;2022-07-15T04:08:46;98384.34;;;19.93;0.00
23318;BME280;11831;55.918;37.746;2022-07-15T04:11:12;98390.28;;;19.95;0.00
23318;BME280;11831;55.918;37.746;2022-07-15T04:13:39;98391.44;;;19.72;0.00
23318;BME280;11831;55.918;37.746;2022-07-15T04:16:06;98395.16;;;20.33;0.00
23318;BME280;11831;55.918;37.746;2022-07-15T04:18:33;98406.84;;;19.94;0.00
23318;BME280;11831;55.918;37.746;2022-07-15T04:21:00;98405.88;;;19.59;0.00
23318;BME280;11831;55.918;37.746;2022-07-15T04:23:26;98416.41;;;19.29;0.00
23318;BME280;11831;55.918;37.746;2022-07-15T04:25:52;98425.06;;;18.95;0.00
23318;BME280;11831;55.918;37.746;2022-07-15T04:28:22;98425.28;;;18.99;0.00
23318;BME280;11831;55.918;37.746;2022-07-15T04:30:48;98411.94;;;19.56;0.00
23318;BME280;11831;55.918;37.746;2022-07-15T04:33:15;98412.19;;;19.23;0.00
23318;BME280;11831;55.918;37.746;2022-07-15T04:35:41;98434.38;;;19.25;0.00
23318;BME280;11831;55.918;37.746;2022-07-15T04:38:08;98417.75;;;19.18;0.00
23318;BME280;11831;55.918;37.746;2022-07-15T04:40:35;98425.06;;;19.40;0.00
23318;BME280;11831;55.918;37.746;2022-07-15T04:43:01;98431.66;;;19.78;0.00
23318;BME280;11831;55.918;37.746;2022-07-15T04:45:27;98443.31;;;19.79;0.00
23318;BME280;11831;55.918;37.746;2022-07-15T04:47:54;98458.81;;;19.87;0.00
23318;BME280;11831;55.918;37.746;2022-07-15T04:50:20;98453.16;;;20.06;0.00
23318;BME280;11831;55.918;37.746;2022-07-15T04:53:05;98444.16;;;20.28;0.00
23318;BME280;11831;55.918;37.746;2022-07-15T04:55:32;98438.63;;;20.02;0.00
23318;BME280;11831;55.918;37.746;2022-07-15T04:57:59;98442.00;;;20.07;0.00
23318;BME280;11831;55.918;37.746;2022-07-15T05:00:26;98425.09;;;20.85;0.00
23318;BME280;11831;55.918;37.746;2022-07-15T05:02:52;98442.66;;;20.70;0.00
23318;BME280;11831;55.918;37.746;2022-07-15T05:05:18;98441.84;;;20.61;0.00
23318;BME280;11831;55.918;37.746;2022-07-15T05:07:44;98436.41;;;20.78;0.00
23318;BME280;11831;55.918;37.746;2022-07-15T05:10:11;98438.53;;;20.90;0.00
23318;BME280;11831;55.918;37.746;2022-07-15T05:12:37;98442.81;;;20.65;0.00
23318;BME280;11831;55.918;37.746;2022-07-15T05:15:04;98472.06;;;20.76;0.00
23318;BME280;11831;55.918;37.746;2022-07-15T05:17:30;98468.53;;;20.67;0.00
23318;BME280;11831;55.918;37.746;2022-07-15T05:19:56;98451.63;;;20.88;0.00
23318;BME280;11831;55.918;37.746;2022-07-15T05:22:23;98460.75;;;20.83;0.00
23318;BME280;11831;55.918;37.746;2022-07-15T05:24:49;98449.72;;;21.14;0.00
23318;BME280;11831;55.918;37.746;2022-07-15T05:27:15;98439.91;;;21.56;0.00
23318;BME280;11831;55.918;37.746;2022-07-15T05:29:43;98422.38;;;21.19;0.00
23318;BME280;11831;55.918;37.746;2022-07-15T05:32:10;98420.28;;;21.07;0.00
23318;BME280;11831;55.918;37.746;2022-07-15T05:34:36;98403.47;;;21.40;0.00
23318;BME280;11831;55.918;37.746;2022-07-15T05:37:05;98386.97;;;21.92;0.00
23318;BME280;11831;55.918;37.746;2022-07-15T05:39:31;98381.97;;;21.64;0.00
23318;BME280;11831;55.918;37.746;2022-07-15T05:41:57;98379.50;;;21.80;0.00
23318;BME280;11831;55.918;37.746;2022-07-15T05:44:26;98387.25;;;21.61;0.00
23318;BME280;11831;55.918;37.746;2022-07-15T05:46:53;98373.88;;;21.85;0.00
23318;BME280;11831;55.918;37.746;2022-07-15T05:49:19;98372.66;;;21.27;0.00
23318;BME280;11831;55.918;37.746;2022-07-15T05:51:46;98371.81;;;21.82;0.00
23318;BME280;11831;55.918;37.746;2022-07-15T05:54:12;98376.47;;;21.82;0.00
23318;BME280;11831;55.918;37.746;2022-07-15T05:56:42;98392.78;;;22.20;0.00
23318;BME280;11831;55.918;37.746;2022-07-15T05:59:08;98399.87;;;22.12;0.00
23318;BME280;11831;55.918;37.746;2022-07-15T06:01:34;98390.53;;;22.22;0.00
23318;BME280;11831;55.918;37.746;2022-07-15T06:04:00;98404.88;;;21.55;0.00
23318;BME280;11831;55.918;37.746;2022-07-15T06:06:27;98393.34;;;21.58;0.00
23318;BME280;11831;55.918;37.746;2022-07-15T06:08:53;98401.47;;;21.75;0.00
23318;BME280;11831;55.918;37.746;2022-07-15T06:11:19;98395.16;;;21.45;0.00
23318;BME280;11831;55.918;37.746;2022-07-15T06:13:45;98406.91;;;21.75;0.00
23318;BME280;11831;55.918;37.746;2022-07-15T06:16:11;98401.94;;;21.77;0.00
23318;BME280;11831;55.918;37.746;2022-07-15T06:18:37;98393.31;;;22.13;0.00
23318;BME280;11831;55.918;37.746;2022-07-15T06:21:03;98392.75;;;21.90;0.00
23318;BME280;11831;55.918;37.746;2022-07-15T06:23:29;98400.47;;;22.18;0.00
23318;BME280;11831;55.918;37.746;2022-07-15T06:25:56;98392.13;;;22.23;0.00
23318;BME280;11831;55.918;37.746;2022-07-15T06:28:23;98380.13;;;22.45;0.00
23318;BME280;11831;55.918;37.746;2022-07-15T06:30:49;98375.13;;;23.09;0.00
23318;BME280;11831;55.918;37.746;2022-07-15T06:33:15;98379.13;;;22.91;0.00
23318;BME280;11831;55.918;37.746;2022-07-15T06:35:41;98382.91;;;23.65;0.00
23318;BME280;11831;55.918;37.746;2022-07-15T06:38:07;98397.75;;;22.89;0.00
23318;BME280;11831;55.918;37.746;2022-07-15T06:40:33;98377.47;;;23.89;0.00
23318;BME280;11831;55.918;37.746;2022-07-15T06:42:59;98375.09;;;23.42;0.00
23318;BME280;11831;55.918;37.746;2022-07-15T06:45:26;98369.97;;;23.29;0.00
23318;BME280;11831;55.918;37.746;2022-07-15T06:47:52;98366.06;;;23.87;0.00
23318;BME280;11831;55.918;37.746;2022-07-15T06:50:18;98381.25;;;23.51;0.00
23318;BME280;11831;55.918;37.746;2022-07-15T06:52:48;98377.13;;;24.03;0.00
23318;BME280;11831;55.918;37.746;2022-07-15T06:55:14;98373.75;;;23.48;0.00
23318;BME280;11831;55.918;37.746;2022-07-15T06:57:40;98379.72;;;23.87;0.00
23318;BME280;11831;55.918;37.746;2022-07-15T07:00:07;98387.78;;;23.59;0.00
23318;BME280;11831;55.918;37.746;2022-07-15T07:02:34;98387.59;;;24.01;0.00
23318;BME280;11831;55.918;37.746;2022-07-15T07:05:00;98392.47;;;23.95;0.00
23318;BME280;11831;55.918;37.746;2022-07-15T07:07:26;98389.19;;;23.90;0.00
23318;BME280;11831;55.918;37.746;2022-07-15T07:09:54;98406.00;;;24.16;0.00
23318;BME280;11831;55.918;37.746;2022-07-15T07:12:20;98402.47;;;23.67;0.00
23318;BME280;11831;55.918;37.746;2022-07-15T07:14:46;98411.34;;;23.76;0.00
23318;BME280;11831;55.918;37.746;2022-07-15T07:17:13;98405.63;;;24.66;0.00
23318;BME280;11831;55.918;37.746;2022-07-15T07:19:39;98424.34;;;24.92;0.00
23318;BME280;11831;55.918;37.746;2022-07-15T07:22:05;98440.34;;;24.17;0.00
23318;BME280;11831;55.918;37.746;2022-07-15T07:24:31;98438.50;;;23.60;0.00
23318;BME280;11831;55.918;37.746;2022-07-15T07:26:57;98425.56;;;24.42;0.00
23318;BME280;11831;55.918;37.746;2022-07-15T07:29:23;98436.50;;;23.94;0.00
23318;BME280;11831;55.918;37.746;2022-07-15T07:31:50;98433.72;;;23.81;0.00
23318;BME280;11831;55.918;37.746;2022-07-15T07:34:16;98421.94;;;24.51;0.00
23318;BME280;11831;55.918;37.746;2022-07-15T07:36:43;98427.78;;;24.77;0.00
23318;BME280;11831;55.918;37.746;2022-07-15T07:39:11;98452.88;;;24.18;0.00
23318;BME280;11831;55.918;37.746;2022-07-15T07:41:37;98433.59;;;24.88;0.00
23318;BME280;11831;55.918;37.746;2022-07-15T07:44:03;98431.81;;;24.67;0.00
23318;BME280;11831;55.918;37.746;2022-07-15T07:46:29;98424.88;;;24.09;0.00
23318;BME280;11831;55.918;37.746;2022-07-15T07:48:56;98438.22;;;24.23;0.00
23318;BME280;11831;55.918;37.746;2022-07-15T07:51:22;98439.16;;;24.91;0.00
23318;BME280;11831;55.918;37.746;2022-07-15T07:53:49;98444.00;;;24.45;0.00
23318;BME280;11831;55.918;37.746;2022-07-15T07:56:15;98431.47;;;25.09;0.00
23318;BME280;11831;55.918;37.746;2022-07-15T07:58:42;98443.94;;;24.94;0.00
23318;BME280;11831;55.918;37.746;2022-07-15T08:01:08;98431.13;;;25.82;0.00
23318;BME280;11831;55.918;37.746;2022-07-15T08:03:34;98432.91;;;26.06;0.00
23318;BME280;11831;55.918;37.746;2022-07-15T08:06:00;98431.31;;;25.89;0.00
23318;BME280;11831;55.918;37.746;2022-07-15T08:08:26;98428.94;;;26.04;0.00
23318;BME280;11831;55.918;37.746;2022-07-15T08:10:54;98436.31;;;26.50;0.00
23318;BME280;11831;55.918;37.746;2022-07-15T08:13:21;98428.22;;;25.75;0.00
23318;BME280;11831;55.918;37.746;2022-07-15T08:15:48;98434.56;;;25.35;0.00
23318;BME280;11831;55.918;37.746;2022-07-15T08:18:15;98436.53;;;24.95;0.00
23318;BME280;11831;55.918;37.746;2022-07-15T08:20:44;98420.47;;;24.93;0.00
23318;BME280;11831;55.918;37.746;2022-07-15T08:23:11;98424.53;;;25.55;0.00
23318;BME280;11831;55.918;37.746;2022-07-15T08:25:37;98416.19;;;26.43;0.00
23318;BME280;11831;55.918;37.746;2022-07-15T08:28:04;98426.34;;;26.11;0.00
23318;BME280;11831;55.918;37.746;2022-07-15T08:30:31;98433.50;;;25.68;0.00
23318;BME280;11831;55.918;37.746;2022-07-15T08:32:59;98427.41;;;26.38;0.00
23318;BME280;11831;55.918;37.746;2022-07-15T08:35:26;98418.34;;;26.02;0.00
23318;BME280;11831;55.918;37.746;2022-07-15T08:37:53;98425.41;;;25.72;0.00
23318;BME280;11831;55.918;37.746;2022-07-15T08:40:19;98433.59;;;25.72;0.00
23318;BME280;11831;55.918;37.746;2022-07-15T08:42:46;98429.44;;;25.93;0.00
23318;BME280;11831;55.918;37.746;2022-07-15T08:45:13;98440.69;;;26.04;0.00
23318;BME280;11831;55.918;37.746;2022-07-15T08:47:41;98445.91;;;25.22;0.00
23318;BME280;11831;55.918;37.746;2022-07-15T08:50:09;98445.13;;;25.65;0.00
23318;BME280;11831;55.918;37.746;2022-07-15T08:52:37;98451.81;;;26.43;0.00
23318;BME280;11831;55.918;37.746;2022-07-15T08:55:05;98457.91;;;25.17;0.00
23318;BME280;11831;55.918;37.746;2022-07-15T08:57:32;98471.78;;;25.24;0.00
23318;BME280;11831;55.918;37.746;2022-07-15T08:59:58;98461.06;;;25.75;0.00
23318;BME280;11831;55.918;37.746;2022-07-15T09:02:24;98466.63;;;25.79;0.00
23318;BME280;11831;55.918;37.746;2022-07-15T09:07:49;98473.19;;;26.37;0.00
23318;BME280;11831;55.918;37.746;2022-07-15T09:10:16;98474.41;;;26.55;0.00
23318;BME280;11831;55.918;37.746;2022-07-15T09:12:43;98488.03;;;26.05;0.00
23318;BME280;11831;55.918;37.746;2022-07-15T09:15:27;98479.81;;;26.52;0.00
23318;BME280;11831;55.918;37.746;2022-07-15T09:18:02;98493.16;;;26.53;0.00
23318;BME280;11831;55.918;37.746;2022-07-15T09:20:28;98490.94;;;26.12;0.00
23318;BME280;11831;55.918;37.746;2022-07-15T09:22:55;98478.13;;;26.47;0.00
23318;BME280;11831;55.918;37.746;2022-07-15T09:25:25;98463.94;;;26.96;0.00
23318;BME280;11831;55.918;37.746;2022-07-15T09:27:53;98462.66;;;25.92;0.00
23318;BME280;11831;55.918;37.746;2022-07-15T09:30:24;98486.88;;;25.34;0.00
23318;BME280;11831;55.918;37.746;2022-07-15T09:33:10;98471.66;;;25.77;0.00
23318;BME280;11831;55.918;37.746;2022-07-15T09:36:01;98465.34;;;24.92;0.00
23318;BME280;11831;55.918;37.746;2022-07-15T09:40:57;98468.53;;;26.38;0.00
23318;BME280;11831;55.918;37.746;2022-07-15T09:43:24;98456.91;;;26.79;0.00
23318;BME280;11831;55.918;37.746;2022-07-15T09:45:59;98491.03;;;26.15;0.00
23318;BME280;11831;55.918;37.746;2022-07-15T09:48:26;98471.22;;;25.90;0.00
23318;BME280;11831;55.918;37.746;2022-07-15T09:50:57;98470.44;;;26.21;0.00
23318;BME280;11831;55.918;37.746;2022-07-15T09:53:24;98482.09;;;26.18;0.00
23318;BME280;11831;55.918;37.746;2022-07-15T09:55:50;98501.44;;;26.25;0.00
23318;BME280;11831;55.918;37.746;2022-07-15T09:58:17;98454.72;;;26.18;0.00
23318;BME280;11831;55.918;37.746;2022-07-15T10:00:44;98518.91;;;25.89;0.00
23318;BME280;11831;55.918;37.746;2022-07-15T10:03:11;98491.09;;;25.72;0.00
23318;BME280;11831;55.918;37.746;2022-07-15T10:05:38;98487.13;;;25.85;0.00
23318;BME280;11831;55.918;37.746;2022-07-15T10:08:05;98489.38;;;25.39;0.00
23318;BME280;11831;55.918;37.746;2022-07-15T10:10:32;98506.87;;;25.50;0.00
23318;BME280;11831;55.918;37.746;2022-07-15T10:16:04;98493.94;;;26.22;0.00
23318;BME280;11831;55.918;37.746;2022-07-15T10:18:38;98502.78;;;26.16;0.00
23318;BME280;11831;55.918;37.746;2022-07-15T10:21:34;98491.97;;;25.76;0.00
23318;BME280;11831;55.918;37.746;2022-07-15T10:23:56;98501.50;;;25.54;0.00
23318;BME280;11831;55.918;37.746;2022-07-15T10:28:58;98500.81;;;25.85;0.00
23318;BME280;11831;55.918;37.746;2022-07-15T10:31:28;98484.28;;;25.53;0.00
23318;BME280;11831;55.918;37.746;2022-07-15T10:36:40;98475.63;;;26.58;0.00
23318;BME280;11831;55.918;37.746;2022-07-15T10:39:07;98488.19;;;26.27;0.00
23318;BME280;11831;55.918;37.746;2022-07-15T10:44:12;98470.59;;;26.28;0.00
23318;BME280;11831;55.918;37.746;2022-07-15T10:46:39;98474.78;;;27.47;0.00
23318;BME280;11831;55.918;37.746;2022-07-15T10:54:07;98475.38;;;27.37;0.00
23318;BME280;11831;55.918;37.746;2022-07-15T10:56:34;98479.56;;;27.11;0.00
23318;BME280;11831;55.918;37.746;2022-07-15T11:01:33;98495.53;;;27.64;0.00
23318;BME280;11831;55.918;37.746;2022-07-15T11:12:54;98527.53;;;26.04;0.00
23318;BME280;11831;55.918;37.746;2022-07-15T11:15:11;98501.31;;;26.34;0.00
23318;BME280;11831;55.918;37.746;2022-07-15T11:17:39;98510.84;;;27.45;0.00
23318;BME280;11831;55.918;37.746;2022-07-15T11:20:07;98504.91;;;28.05;0.00
23318;BME280;11831;55.918;37.746;2022-07-15T11:22:44;98497.88;;;28.07;0.00
23318;BME280;11831;55.918;37.746;2022-07-15T11:25:18;98492.87;;;28.59;0.00
23318;BME280;11831;55.918;37.746;2022-07-15T11:30:47;98494.03;;;27.28;0.00
23318;BME280;11831;55.918;37.746;2022-07-15T11:33:16;98503.25;;;27.58;0.00
23318;BME280;11831;55.918;37.746;2022-07-15T11:35:49;98508.16;;;27.10;0.00
23318;BME280;11831;55.918;37.746;2022-07-15T11:38:17;98514.56;;;27.18;0.00
23318;BME280;11831;55.918;37.746;2022-07-15T11:40:47;98510.38;;;27.24;0.00
23318;BME280;11831;55.918;37.746;2022-07-15T11:43:33;98525.19;;;26.34;0.00
23318;BME280;11831;55.918;37.746;2022-07-15T11:46:18;98511.88;;;26.20;0.00
23318;BME280;11831;55.918;37.746;2022-07-15T11:48:44;98523.66;;;26.36;0.00
23318;BME280;11831;55.918;37.746;2022-07-15T11:51:11;98516.97;;;27.19;0.00
23318;BME280;11831;55.918;37.746;2022-07-15T11:53:40;98514.72;;;26.55;0.00
23318;BME280;11831;55.918;37.746;2022-07-15T11:56:07;98524.09;;;26.89;0.00
23318;BME280;11831;55.918;37.746;2022-07-15T11:58:40;98490.31;;;28.73;0.00
23318;BME280;11831;55.918;37.746;2022-07-15T12:01:11;98507.44;;;28.86;0.00
23318;BME280;11831;55.918;37.746;2022-07-15T12:03:48;98519.91;;;28.80;0.00
23318;BME280;11831;55.918;37.746;2022-07-15T12:06:16;98513.00;;;29.19;0.00
23318;BME280;11831;55.918;37.746;2022-07-15T12:08:43;98511.22;;;29.04;0.00
23318;BME280;11831;55.918;37.746;2022-07-15T12:11:14;98514.19;;;28.42;0.00
23318;BME280;11831;55.918;37.746;2022-07-15T12:13:44;98543.59;;;27.19;0.00
23318;BME280;11831;55.918;37.746;2022-07-15T12:16:11;98498.56;;;27.39;0.00
23318;BME280;11831;55.918;37.746;2022-07-15T12:18:38;98502.16;;;27.24;0.00
23318;BME280;11831;55.918;37.746;2022-07-15T12:21:05;98498.34;;;26.74;0.00
23318;BME280;11831;55.918;37.746;2022-07-15T12:23:31;98518.44;;;26.98;0.00
23318;BME280;11831;55.918;37.746;2022-07-15T12:26:04;98513.91;;;26.70;0.00
23318;BME280;11831;55.918;37.746;2022-07-15T12:28:31;98505.84;;;27.12;0.00
23318;BME280;11831;55.918;37.746;2022-07-15T12:30:57;98511.88;;;27.99;0.00
23318;BME280;11831;55.918;37.746;2022-07-15T12:33:25;98516.47;;;26.63;0.00
23318;BME280;11831;55.918;37.746;2022-07-15T12:36:11;98528.50;;;26.58;0.00
23318;BME280;11831;55.918;37.746;2022-07-15T12:38:37;98534.03;;;25.99;0.00
23318;BME280;11831;55.918;37.746;2022-07-15T12:41:06;98520.00;;;26.16;0.00
23318;BME280;11831;55.918;37.746;2022-07-15T12:43:46;98530.72;;;26.69;0.00
23318;BME280;11831;55.918;37.746;2022-07-15T12:46:12;98552.00;;;26.75;0.00
23318;BME280;11831;55.918;37.746;2022-07-15T12:48:48;98530.63;;;27.74;0.00
23318;BME280;11831;55.918;37.746;2022-07-15T12:51:16;98531.50;;;28.43;0.00
23318;BME280;11831;55.918;37.746;2022-07-15T12:53:43;98520.53;;;28.01;0.00
23318;BME280;11831;55.918;37.746;2022-07-15T12:56:09;98538.47;;;26.82;0.00
23318;BME280;11831;55.918;37.746;2022-07-15T12:58:36;98536.03;;;26.46;0.00
23318;BME280;11831;55.918;37.746;2022-07-15T13:01:08;98534.66;;;27.99;0.00
23318;BME280;11831;55.918;37.746;2022-07-15T13:03:34;98533.00;;;27.95;0.00
23318;BME280;11831;55.918;37.746;2022-07-15T13:06:01;98543.38;;;28.05;0.00
23318;BME280;11831;55.918;37.746;2022-07-15T13:08:28;98536.84;;;28.59;0.00
23318;BME280;11831;55.918;37.746;2022-07-15T13:10:56;98520.56;;;29.96;0.00
23318;BME280;11831;55.918;37.746;2022-07-15T13:13:23;98549.28;;;28.49;0.00
23318;BME280;11831;55.918;37.746;2022-07-15T13:15:50;98547.75;;;27.48;0.00
23318;BME280;11831;55.918;37.746;2022-07-15T13:18:19;98538.06;;;27.54;0.00
23318;BME280;11831;55.918;37.746;2022-07-15T13:20:46;98532.66;;;27.77;0.00
23318;BME280;11831;55.918;37.746;2022-07-15T13:23:13;98534.50;;;28.84;0.00
23318;BME280;11831;55.918;37.746;2022-07-15T13:25:39;98532.19;;;28.63;0.00
23318;BME280;11831;55.918;37.746;2022-07-15T13:28:07;98547.28;;;28.04;0.00
23318;BME280;11831;55.918;37.746;2022-07-15T13:30:34;98552.63;;;29.75;0.00
23318;BME280;11831;55.918;37.746;2022-07-15T13:33:01;98537.25;;;28.84;0.00
23318;BME280;11831;55.918;37.746;2022-07-15T13:35:27;98550.03;;;29.25;0.00
23318;BME280;11831;55.918;37.746;2022-07-15T13:37:54;98542.22;;;30.83;0.00